Skip Navigation Links
NOAA logo - Click to go to the NOAA homepage
NOAA's National Weather Service
Alaska Aviation Weather Unit
  NWS logo - Click to go to the NWS homepage
Left Navbar Graphic     00 AKDT = 08 GMT

   
NOAA is celebrating 200 years of science, service, and stewardship. Visit the NOAA 200th celebration Web site to learn more.
USA.gov is the U.S. Government's official Web portal to all Federal, state and local government Web resources and services.
Facebook
NWS on Facebook

Important Change Regarding the AAWU Web Presence

 

Over the last several months, the AAWU has been working to navigate its webpages to a nationally supported server. Security, as well as other needs, have necessitated the change.  We have been given an extension for the site changeover while we diligently work at addressing feedback received. As of July 14, 2017, aawu.arh.noaa.gov will be discontinued. The new AAWU web address is weather.gov/aawu. It is now live and will run in-parallel with the old site until it is discontinued on July 14, 2017. Please continue to send any feedback or questions regarding the new webpages to nws.ar.aawu.webauthors@noaa.gov.  Thank you for your patience during this time of transition.
AAWU Home :: Display TAF Add Bookmark
TAF PASC 240540Z 2406/2506  05013KT 1SM BR VCSH OVC004
     FM242200 06010KT 4SM BR OVC015=

4309
FTAK31 PAFA 240540
TAFAMC
TAF

PASC 240248Z 05012KT 10SM OVC010 02/01 A3000= SPECI PASC 240248Z 05012KT 10SM OVC010 02/01 A3000 RMK AO1= METAR PASC 240253Z 05011KT 10SM OVC010 02/01 A3000= METAR PASC 240353Z 05013KT 10SM OVC010 02/01 A2998= METAR PASC 240453Z 06014KT 10SM OVC010 02/01 A2997= PASC 240500Z 05013KT 4SM BR OVC006 02/02 A2997= SPECI PASC 240500Z 05013KT 4SM BR OVC006 02/02 A2997 RMK AO1 CIG 004V007 T00220017= PASC 240513Z 05013KT 2 1/2SM BR OVC003 02/02 A2997= PASC 240513Z 05013KT 2 1/2SM BR OVC003 02/02 A2997 RMK AO1 CIG 003V006 T00170017= PASC 240526Z 06012KT 5SM BR OVC003 02/02 A2997= SPECI PASC 240526Z 06012KT 5SM BR OVC003 02/02 A2997 RMK AO1 T00170017= METAR PASC 240553Z 05011KT 10SM OVC006 02/01 A2996= METAR PASC 240653Z 05012KT 9SM OVC005 02/02 A2996= METAR PASC 240753Z 05012KT 8SM OVC004 02/02 A2994=
 Alaska TAF Map

NOAA's National Weather Service
Alaska Aviation Weather Unit
6930 Sand Lake Road
Anchorage, AK 99502-1845
Disclaimer
Credits
Glossary
Privacy Policy
About Us
Career Opportunities
Contact AAWU Internet Services Site last modified: April, 17th 2012